sensor_id;sensor_type;location;lat;lon;timestamp;pressure;altitude;pressure_sealevel;temperature;humidity
4346;BME280;2186;49.866;7.986;2023-08-24T00:01:44;100393.81;;;19.22;94.07
4346;BME280;2186;49.866;7.986;2023-08-24T00:04:10;100385.81;;;19.20;94.17
4346;BME280;2186;49.866;7.986;2023-08-24T00:06:37;100380.59;;;19.32;93.94
4346;BME280;2186;49.866;7.986;2023-08-24T00:09:04;100378.59;;;19.21;94.02
4346;BME280;2186;49.866;7.986;2023-08-24T00:11:32;100366.09;;;19.20;94.32
4346;BME280;2186;49.866;7.986;2023-08-24T00:13:58;100371.84;;;19.28;94.23
4346;BME280;2186;49.866;7.986;2023-08-24T00:16:25;100384.25;;;19.31;94.52
4346;BME280;2186;49.866;7.986;2023-08-24T00:18:51;100401.22;;;19.33;94.01
4346;BME280;2186;49.866;7.986;2023-08-24T00:21:18;100402.25;;;19.44;93.55
4346;BME280;2186;49.866;7.986;2023-08-24T00:23:49;100418.16;;;19.49;93.38
4346;BME280;2186;49.866;7.986;2023-08-24T00:26:16;100431.56;;;19.65;92.94
4346;BME280;2186;49.866;7.986;2023-08-24T00:28:46;100441.25;;;19.53;92.10
4346;BME280;2186;49.866;7.986;2023-08-24T00:31:15;100448.97;;;20.15;90.87
4346;BME280;2186;49.866;7.986;2023-08-24T00:33:42;100434.91;;;19.68;91.80
4346;BME280;2186;49.866;7.986;2023-08-24T00:36:08;100435.47;;;19.31;93.88
4346;BME280;2186;49.866;7.986;2023-08-24T00:38:35;100425.75;;;19.28;94.18
4346;BME280;2186;49.866;7.986;2023-08-24T00:41:03;100429.41;;;19.41;94.79
4346;BME280;2186;49.866;7.986;2023-08-24T00:43:29;100425.00;;;19.26;95.11
4346;BME280;2186;49.866;7.986;2023-08-24T00:45:58;100415.47;;;19.35;95.00
4346;BME280;2186;49.866;7.986;2023-08-24T00:48:26;100412.06;;;19.03;96.04
4346;BME280;2186;49.866;7.986;2023-08-24T00:50:56;100409.94;;;18.79;97.00
4346;BME280;2186;49.866;7.986;2023-08-24T00:53:24;100400.94;;;18.49;98.71
4346;BME280;2186;49.866;7.986;2023-08-24T00:55:51;100397.44;;;18.78;97.97
4346;BME280;2186;49.866;7.986;2023-08-24T00:58:17;100394.38;;;18.99;96.80
4346;BME280;2186;49.866;7.986;2023-08-24T01:00:46;100406.56;;;19.04;96.25
4346;BME280;2186;49.866;7.986;2023-08-24T01:03:12;100398.97;;;18.82;97.77
4346;BME280;2186;49.866;7.986;2023-08-24T01:05:39;100390.69;;;19.00;97.96
4346;BME280;2186;49.866;7.986;2023-08-24T01:08:05;100390.50;;;19.17;97.34
4346;BME280;2186;49.866;7.986;2023-08-24T01:11:02;100397.94;;;19.13;97.44
4346;BME280;2186;49.866;7.986;2023-08-24T01:13:59;100403.72;;;19.21;96.75
4346;BME280;2186;49.866;7.986;2023-08-24T01:16:29;100408.72;;;19.28;95.96
4346;BME280;2186;49.866;7.986;2023-08-24T01:18:58;100408.03;;;19.24;96.03
4346;BME280;2186;49.866;7.986;2023-08-24T01:21:29;100410.75;;;19.24;96.07
4346;BME280;2186;49.866;7.986;2023-08-24T01:24:03;100418.53;;;19.14;96.26
4346;BME280;2186;49.866;7.986;2023-08-24T01:26:31;100407.63;;;19.02;96.35
4346;BME280;2186;49.866;7.986;2023-08-24T01:28:57;100411.69;;;19.09;96.44
4346;BME280;2186;49.866;7.986;2023-08-24T01:31:25;100410.63;;;18.97;97.51
4346;BME280;2186;49.866;7.986;2023-08-24T01:33:51;100404.06;;;19.01;97.64
4346;BME280;2186;49.866;7.986;2023-08-24T01:36:18;100389.53;;;19.04;97.19
4346;BME280;2186;49.866;7.986;2023-08-24T01:38:53;100395.53;;;18.94;97.53
4346;BME280;2186;49.866;7.986;2023-08-24T01:41:25;100389.06;;;18.83;97.77
4346;BME280;2186;49.866;7.986;2023-08-24T01:43:53;100384.25;;;18.58;99.00
4346;BME280;2186;49.866;7.986;2023-08-24T01:46:21;100374.69;;;18.68;99.47
4346;BME280;2186;49.866;7.986;2023-08-24T01:48:49;100378.63;;;18.77;98.65
4346;BME280;2186;49.866;7.986;2023-08-24T01:51:16;100376.94;;;18.90;98.51
4346;BME280;2186;49.866;7.986;2023-08-24T01:53:43;100386.09;;;19.02;97.88
4346;BME280;2186;49.866;7.986;2023-08-24T01:56:10;100368.88;;;19.33;96.57
4346;BME280;2186;49.866;7.986;2023-08-24T01:58:37;100371.06;;;19.55;95.57
4346;BME280;2186;49.866;7.986;2023-08-24T02:01:05;100369.13;;;19.42;96.06
4346;BME280;2186;49.866;7.986;2023-08-24T02:03:32;100366.53;;;19.41;96.00
4346;BME280;2186;49.866;7.986;2023-08-24T02:05:59;100359.31;;;19.41;96.28
4346;BME280;2186;49.866;7.986;2023-08-24T02:08:25;100363.56;;;19.31;96.84
4346;BME280;2186;49.866;7.986;2023-08-24T02:10:52;100361.84;;;19.16;97.49
4346;BME280;2186;49.866;7.986;2023-08-24T02:13:18;100353.19;;;19.25;97.64
4346;BME280;2186;49.866;7.986;2023-08-24T02:15:45;100347.13;;;19.21;97.98
4346;BME280;2186;49.866;7.986;2023-08-24T02:18:11;100349.72;;;19.09;98.70
4346;BME280;2186;49.866;7.986;2023-08-24T02:20:38;100358.66;;;18.95;99.44
4346;BME280;2186;49.866;7.986;2023-08-24T02:23:05;100357.31;;;19.02;98.66
4346;BME280;2186;49.866;7.986;2023-08-24T02:25:31;100359.44;;;19.11;98.08
4346;BME280;2186;49.866;7.986;2023-08-24T02:27:58;100356.44;;;19.16;97.80
4346;BME280;2186;49.866;7.986;2023-08-24T02:30:26;100342.09;;;19.01;99.25
4346;BME280;2186;49.866;7.986;2023-08-24T02:32:52;100343.38;;;19.10;98.88
4346;BME280;2186;49.866;7.986;2023-08-24T02:35:19;100338.34;;;18.75;100.00
4346;BME280;2186;49.866;7.986;2023-08-24T02:37:45;100333.03;;;18.74;100.00
4346;BME280;2186;49.866;7.986;2023-08-24T02:40:11;100326.31;;;18.67;100.00
4346;BME280;2186;49.866;7.986;2023-08-24T02:42:38;100319.97;;;18.82;100.00
4346;BME280;2186;49.866;7.986;2023-08-24T02:45:05;100315.84;;;18.90;100.00
4346;BME280;2186;49.866;7.986;2023-08-24T02:47:31;100320.94;;;19.09;100.00
4346;BME280;2186;49.866;7.986;2023-08-24T02:49:59;100313.44;;;19.14;99.56
4346;BME280;2186;49.866;7.986;2023-08-24T02:52:25;100298.88;;;19.17;99.54
4346;BME280;2186;49.866;7.986;2023-08-24T02:54:52;100304.16;;;19.18;99.27
4346;BME280;2186;49.866;7.986;2023-08-24T02:57:18;100291.88;;;19.00;100.00
4346;BME280;2186;49.866;7.986;2023-08-24T02:59:44;100292.53;;;19.04;100.00
4346;BME280;2186;49.866;7.986;2023-08-24T03:02:11;100295.94;;;19.07;100.00
4346;BME280;2186;49.866;7.986;2023-08-24T03:04:37;100275.88;;;19.26;99.51
4346;BME280;2186;49.866;7.986;2023-08-24T03:07:04;100269.06;;;19.20;99.56
4346;BME280;2186;49.866;7.986;2023-08-24T03:09:36;100268.06;;;19.35;98.87
4346;BME280;2186;49.866;7.986;2023-08-24T03:12:03;100263.44;;;19.37;98.39
4346;BME280;2186;49.866;7.986;2023-08-24T03:14:29;100264.56;;;19.47;98.33
4346;BME280;2186;49.866;7.986;2023-08-24T03:16:56;100268.13;;;19.48;98.57
4346;BME280;2186;49.866;7.986;2023-08-24T03:19:22;100268.41;;;19.58;97.96
4346;BME280;2186;49.866;7.986;2023-08-24T03:21:49;100267.25;;;19.62;96.93
4346;BME280;2186;49.866;7.986;2023-08-24T03:24:16;100256.66;;;19.59;97.42
4346;BME280;2186;49.866;7.986;2023-08-24T03:26:42;100257.44;;;19.46;97.66
4346;BME280;2186;49.866;7.986;2023-08-24T03:29:08;100257.50;;;19.59;97.22
4346;BME280;2186;49.866;7.986;2023-08-24T03:31:35;100264.66;;;19.60;97.46
4346;BME280;2186;49.866;7.986;2023-08-24T03:34:01;100263.41;;;19.78;96.39
4346;BME280;2186;49.866;7.986;2023-08-24T03:36:30;100262.09;;;19.71;96.68
4346;BME280;2186;49.866;7.986;2023-08-24T03:38:56;100260.63;;;19.80;95.91
4346;BME280;2186;49.866;7.986;2023-08-24T03:41:23;100252.38;;;20.08;94.91
4346;BME280;2186;49.866;7.986;2023-08-24T03:43:49;100249.44;;;19.99;94.10
4346;BME280;2186;49.866;7.986;2023-08-24T03:46:16;100246.63;;;19.88;95.06
4346;BME280;2186;49.866;7.986;2023-08-24T03:48:42;100246.06;;;19.82;95.76
4346;BME280;2186;49.866;7.986;2023-08-24T03:51:09;100251.56;;;19.81;95.72
4346;BME280;2186;49.866;7.986;2023-08-24T03:53:35;100246.66;;;19.73;95.66
4346;BME280;2186;49.866;7.986;2023-08-24T03:56:02;100251.06;;;19.62;96.07
4346;BME280;2186;49.866;7.986;2023-08-24T03:58:28;100260.38;;;20.10;94.77
4346;BME280;2186;49.866;7.986;2023-08-24T04:00:55;100262.03;;;19.86;96.00
4346;BME280;2186;49.866;7.986;2023-08-24T04:03:21;100253.25;;;19.69;96.28
4346;BME280;2186;49.866;7.986;2023-08-24T04:05:48;100234.31;;;19.57;98.02
4346;BME280;2186;49.866;7.986;2023-08-24T04:08:14;100233.63;;;19.53;98.90
4346;BME280;2186;49.866;7.986;2023-08-24T04:10:41;100234.84;;;19.35;100.00
4346;BME280;2186;49.866;7.986;2023-08-24T04:13:07;100234.69;;;19.50;99.68
4346;BME280;2186;49.866;7.986;2023-08-24T04:15:34;100243.56;;;19.52;100.00
4346;BME280;2186;49.866;7.986;2023-08-24T04:18:00;100240.75;;;19.54;100.00
4346;BME280;2186;49.866;7.986;2023-08-24T04:20:27;100234.97;;;19.46;100.00
4346;BME280;2186;49.866;7.986;2023-08-24T04:22:54;100230.16;;;19.51;100.00
4346;BME280;2186;49.866;7.986;2023-08-24T04:25:21;100235.56;;;19.51;100.00
4346;BME280;2186;49.866;7.986;2023-08-24T04:27:47;100249.50;;;19.85;100.00
4346;BME280;2186;49.866;7.986;2023-08-24T04:30:14;100260.50;;;19.81;99.08
4346;BME280;2186;49.866;7.986;2023-08-24T04:32:41;100267.69;;;19.95;98.67
4346;BME280;2186;49.866;7.986;2023-08-24T04:35:08;100279.72;;;19.77;98.97
4346;BME280;2186;49.866;7.986;2023-08-24T04:37:34;100293.66;;;20.23;97.84
4346;BME280;2186;49.866;7.986;2023-08-24T04:40:01;100312.50;;;20.50;96.97
4346;BME280;2186;49.866;7.986;2023-08-24T04:42:27;100342.56;;;20.58;96.38
4346;BME280;2186;49.866;7.986;2023-08-24T04:44:54;100364.63;;;20.78;93.82
4346;BME280;2186;49.866;7.986;2023-08-24T04:47:20;100388.19;;;20.88;92.89
4346;BME280;2186;49.866;7.986;2023-08-24T04:49:47;100404.25;;;20.64;93.89
4346;BME280;2186;49.866;7.986;2023-08-24T04:52:13;100418.22;;;20.71;92.95
4346;BME280;2186;49.866;7.986;2023-08-24T04:54:40;100427.47;;;20.54;94.11
4346;BME280;2186;49.866;7.986;2023-08-24T04:57:06;100424.91;;;20.65;93.42
4346;BME280;2186;49.866;7.986;2023-08-24T04:59:33;100427.38;;;20.68;93.61
4346;BME280;2186;49.866;7.986;2023-08-24T05:01:59;100448.56;;;20.62;93.57
4346;BME280;2186;49.866;7.986;2023-08-24T05:04:26;100450.50;;;20.60;93.86
4346;BME280;2186;49.866;7.986;2023-08-24T05:06:52;100444.13;;;20.61;93.43
4346;BME280;2186;49.866;7.986;2023-08-24T05:09:19;100450.78;;;20.28;93.92
4346;BME280;2186;49.866;7.986;2023-08-24T05:11:45;100444.97;;;20.49;93.62
4346;BME280;2186;49.866;7.986;2023-08-24T05:14:12;100438.97;;;20.17;94.38
4346;BME280;2186;49.866;7.986;2023-08-24T05:16:40;100429.22;;;20.14;95.34
4346;BME280;2186;49.866;7.986;2023-08-24T05:19:06;100431.44;;;20.22;95.56
4346;BME280;2186;49.866;7.986;2023-08-24T05:21:33;100430.28;;;20.11;96.31
4346;BME280;2186;49.866;7.986;2023-08-24T05:23:59;100431.63;;;20.19;95.90
4346;BME280;2186;49.866;7.986;2023-08-24T05:26:26;100429.16;;;20.16;95.62
4346;BME280;2186;49.866;7.986;2023-08-24T05:28:52;100422.44;;;20.75;93.50
4346;BME280;2186;49.866;7.986;2023-08-24T05:31:19;100427.81;;;20.35;94.11
4346;BME280;2186;49.866;7.986;2023-08-24T05:33:47;100429.59;;;20.22;95.76
4346;BME280;2186;49.866;7.986;2023-08-24T05:36:13;100432.03;;;20.39;95.37
4346;BME280;2186;49.866;7.986;2023-08-24T05:38:40;100426.72;;;20.38;94.08
4346;BME280;2186;49.866;7.986;2023-08-24T05:41:30;100430.19;;;20.40;94.20
4346;BME280;2186;49.866;7.986;2023-08-24T05:43:57;100433.88;;;20.39;94.08
4346;BME280;2186;49.866;7.986;2023-08-24T05:46:24;100427.25;;;20.30;95.27
4346;BME280;2186;49.866;7.986;2023-08-24T05:48:51;100431.28;;;20.37;95.54
4346;BME280;2186;49.866;7.986;2023-08-24T05:51:17;100424.69;;;20.68;95.01
4346;BME280;2186;49.866;7.986;2023-08-24T05:53:43;100425.16;;;20.75;95.21
4346;BME280;2186;49.866;7.986;2023-08-24T05:56:10;100423.72;;;20.69;96.50
4346;BME280;2186;49.866;7.986;2023-08-24T05:58:36;100424.16;;;20.63;96.41
4346;BME280;2186;49.866;7.986;2023-08-24T06:01:03;100420.38;;;20.66;97.41
4346;BME280;2186;49.866;7.986;2023-08-24T06:03:29;100383.59;;;20.51;98.13
4346;BME280;2186;49.866;7.986;2023-08-24T06:06:01;100339.44;;;20.25;99.55
4346;BME280;2186;49.866;7.986;2023-08-24T06:08:28;100288.31;;;20.09;100.00
4346;BME280;2186;49.866;7.986;2023-08-24T06:10:55;100259.09;;;20.16;100.00
4346;BME280;2186;49.866;7.986;2023-08-24T06:13:21;100251.66;;;20.19;99.77
4346;BME280;2186;49.866;7.986;2023-08-24T06:15:48;100235.63;;;20.43;99.37
4346;BME280;2186;49.866;7.986;2023-08-24T06:18:14;100269.41;;;20.61;99.39
4346;BME280;2186;49.866;7.986;2023-08-24T06:20:42;100330.22;;;21.18;99.34
4346;BME280;2186;49.866;7.986;2023-08-24T06:23:08;100349.28;;;21.04;99.21
4346;BME280;2186;49.866;7.986;2023-08-24T06:25:35;100339.56;;;21.01;99.88
4346;BME280;2186;49.866;7.986;2023-08-24T06:28:02;100321.28;;;21.05;97.74
4346;BME280;2186;49.866;7.986;2023-08-24T06:30:30;100307.34;;;20.98;98.57
4346;BME280;2186;49.866;7.986;2023-08-24T06:33:03;100305.56;;;21.10;98.14
4346;BME280;2186;49.866;7.986;2023-08-24T06:35:30;100327.31;;;21.21;99.61
4346;BME280;2186;49.866;7.986;2023-08-24T06:37:56;100329.38;;;21.30;100.00
4346;BME280;2186;49.866;7.986;2023-08-24T06:40:24;100329.38;;;21.17;99.71
4346;BME280;2186;49.866;7.986;2023-08-24T06:42:50;100341.56;;;21.23;99.70
4346;BME280;2186;49.866;7.986;2023-08-24T06:45:17;100348.31;;;21.30;100.00
4346;BME280;2186;49.866;7.986;2023-08-24T06:47:44;100341.78;;;21.45;99.88
4346;BME280;2186;49.866;7.986;2023-08-24T06:50:11;100340.97;;;21.69;100.00
4346;BME280;2186;49.866;7.986;2023-08-24T06:52:38;100347.88;;;21.73;100.00
4346;BME280;2186;49.866;7.986;2023-08-24T06:55:05;100342.59;;;21.71;99.98
4346;BME280;2186;49.866;7.986;2023-08-24T06:57:31;100346.00;;;21.49;100.00
4346;BME280;2186;49.866;7.986;2023-08-24T06:59:58;100352.22;;;21.63;100.00
4346;BME280;2186;49.866;7.986;2023-08-24T07:02:24;100361.72;;;21.32;99.19
4346;BME280;2186;49.866;7.986;2023-08-24T07:04:51;100362.78;;;21.42;97.77
4346;BME280;2186;49.866;7.986;2023-08-24T07:07:17;100374.59;;;21.41;97.74
4346;BME280;2186;49.866;7.986;2023-08-24T07:09:43;100380.25;;;21.62;98.19
4346;BME280;2186;49.866;7.986;2023-08-24T07:12:10;100392.91;;;21.74;98.26
4346;BME280;2186;49.866;7.986;2023-08-24T07:14:36;100386.78;;;21.59;96.27
4346;BME280;2186;49.866;7.986;2023-08-24T07:17:03;100383.75;;;21.51;97.04
4346;BME280;2186;49.866;7.986;2023-08-24T07:19:29;100374.63;;;21.65;96.95
4346;BME280;2186;49.866;7.986;2023-08-24T07:21:56;100350.22;;;21.53;97.30
4346;BME280;2186;49.866;7.986;2023-08-24T07:24:22;100345.59;;;21.43;98.21
4346;BME280;2186;49.866;7.986;2023-08-24T07:27:10;100355.09;;;21.48;100.00
4346;BME280;2186;49.866;7.986;2023-08-24T07:29:36;100349.00;;;21.57;100.00
4346;BME280;2186;49.866;7.986;2023-08-24T07:32:03;100327.47;;;21.56;100.00
4346;BME280;2186;49.866;7.986;2023-08-24T07:34:30;100303.81;;;21.47;100.00
4346;BME280;2186;49.866;7.986;2023-08-24T07:36:56;100287.38;;;21.37;100.00
4346;BME280;2186;49.866;7.986;2023-08-24T07:39:22;100246.41;;;21.31;100.00
4346;BME280;2186;49.866;7.986;2023-08-24T07:41:49;100173.63;;;20.91;100.00
4346;BME280;2186;49.866;7.986;2023-08-24T07:44:15;100123.19;;;20.79;100.00
4346;BME280;2186;49.866;7.986;2023-08-24T07:46:42;100081.72;;;20.67;100.00
4346;BME280;2186;49.866;7.986;2023-08-24T07:49:08;100083.50;;;20.79;99.98
4346;BME280;2186;49.866;7.986;2023-08-24T07:51:36;100090.03;;;21.00;98.11
4346;BME280;2186;49.866;7.986;2023-08-24T07:54:02;100144.84;;;21.50;97.21
4346;BME280;2186;49.866;7.986;2023-08-24T07:56:30;100178.00;;;21.76;97.48
4346;BME280;2186;49.866;7.986;2023-08-24T07:58:57;100187.78;;;21.90;97.76
4346;BME280;2186;49.866;7.986;2023-08-24T08:01:23;100201.75;;;21.73;99.48
4346;BME280;2186;49.866;7.986;2023-08-24T08:03:50;100201.28;;;21.79;100.00
4346;BME280;2186;49.866;7.986;2023-08-24T08:06:17;100200.56;;;21.88;98.60
4346;BME280;2186;49.866;7.986;2023-08-24T08:08:43;100208.03;;;21.73;97.58
4346;BME280;2186;49.866;7.986;2023-08-24T08:11:12;100224.63;;;22.04;99.17
4346;BME280;2186;49.866;7.986;2023-08-24T08:13:38;100225.28;;;22.07;100.00
4346;BME280;2186;49.866;7.986;2023-08-24T08:16:06;100222.88;;;22.27;97.21
4346;BME280;2186;49.866;7.986;2023-08-24T08:18:36;100227.03;;;22.08;98.05
4346;BME280;2186;49.866;7.986;2023-08-24T08:21:29;100236.53;;;22.25;99.88
4346;BME280;2186;49.866;7.986;2023-08-24T08:23:56;100241.03;;;22.49;99.32
4346;BME280;2186;49.866;7.986;2023-08-24T08:26:23;100239.69;;;22.65;98.40
4346;BME280;2186;49.866;7.986;2023-08-24T08:28:49;100233.16;;;22.79;96.91
4346;BME280;2186;49.866;7.986;2023-08-24T08:31:16;100233.88;;;22.59;95.87
4346;BME280;2186;49.866;7.986;2023-08-24T08:33:45;100231.75;;;22.40;96.38
4346;BME280;2186;49.866;7.986;2023-08-24T08:36:12;100228.09;;;22.52;96.81
4346;BME280;2186;49.866;7.986;2023-08-24T08:38:38;100229.50;;;22.34;95.83
4346;BME280;2186;49.866;7.986;2023-08-24T08:41:04;100230.81;;;22.63;95.34
4346;BME280;2186;49.866;7.986;2023-08-24T08:43:31;100225.84;;;22.57;94.07
4346;BME280;2186;49.866;7.986;2023-08-24T08:45:58;100210.13;;;22.85;93.58
4346;BME280;2186;49.866;7.986;2023-08-24T08:48:26;100215.28;;;23.21;92.55
4346;BME280;2186;49.866;7.986;2023-08-24T08:50:54;100208.47;;;23.27;89.41
4346;BME280;2186;49.866;7.986;2023-08-24T08:53:23;100196.09;;;23.45;89.03
4346;BME280;2186;49.866;7.986;2023-08-24T08:55:51;100194.03;;;23.38;88.84
4346;BME280;2186;49.866;7.986;2023-08-24T08:58:20;100206.81;;;23.47;90.40
4346;BME280;2186;49.866;7.986;2023-08-24T09:00:47;100215.84;;;23.79;90.76
4346;BME280;2186;49.866;7.986;2023-08-24T09:03:17;100211.13;;;24.13;88.86
4346;BME280;2186;49.866;7.986;2023-08-24T09:05:45;100197.06;;;24.50;87.44
4346;BME280;2186;49.866;7.986;2023-08-24T09:08:16;100180.63;;;24.10;88.00
4346;BME280;2186;49.866;7.986;2023-08-24T09:10:43;100173.56;;;24.18;85.73
4346;BME280;2186;49.866;7.986;2023-08-24T09:13:10;100169.41;;;24.75;83.98
4346;BME280;2186;49.866;7.986;2023-08-24T09:15:36;100163.44;;;24.81;84.92
4346;BME280;2186;49.866;7.986;2023-08-24T09:18:03;100157.00;;;24.92;82.78
4346;BME280;2186;49.866;7.986;2023-08-24T09:20:30;100159.06;;;25.00;78.44
4346;BME280;2186;49.866;7.986;2023-08-24T09:22:57;100158.84;;;25.13;77.93
4346;BME280;2186;49.866;7.986;2023-08-24T09:25:24;100151.34;;;25.05;77.35
4346;BME280;2186;49.866;7.986;2023-08-24T09:28:01;100149.63;;;25.04;77.14
4346;BME280;2186;49.866;7.986;2023-08-24T09:30:36;100137.94;;;25.13;75.69
4346;BME280;2186;49.866;7.986;2023-08-24T09:33:10;100125.91;;;25.35;76.50
4346;BME280;2186;49.866;7.986;2023-08-24T09:35:37;100117.00;;;25.62;75.99
4346;BME280;2186;49.866;7.986;2023-08-24T09:38:20;100113.16;;;25.64;76.43
4346;BME280;2186;49.866;7.986;2023-08-24T09:40:50;100104.44;;;25.71;76.64
4346;BME280;2186;49.866;7.986;2023-08-24T09:43:17;100102.41;;;25.63;74.59
4346;BME280;2186;49.866;7.986;2023-08-24T09:45:54;100106.31;;;25.80;73.37
4346;BME280;2186;49.866;7.986;2023-08-24T09:48:22;100108.16;;;25.79;72.91
4346;BME280;2186;49.866;7.986;2023-08-24T09:50:51;100106.34;;;26.17;72.58
4346;BME280;2186;49.866;7.986;2023-08-24T09:53:19;100115.03;;;26.30;72.41
4346;BME280;2186;49.866;7.986;2023-08-24T09:58:24;100122.34;;;25.92;69.20
4346;BME280;2186;49.866;7.986;2023-08-24T10:00:51;100122.19;;;26.50;70.06
4346;BME280;2186;49.866;7.986;2023-08-24T10:03:20;100112.75;;;26.35;67.48
4346;BME280;2186;49.866;7.986;2023-08-24T10:05:52;100101.13;;;26.33;67.68
4346;BME280;2186;49.866;7.986;2023-08-24T10:08:31;100103.22;;;26.12;69.64
4346;BME280;2186;49.866;7.986;2023-08-24T10:10:58;100102.06;;;26.61;70.69
4346;BME280;2186;49.866;7.986;2023-08-24T10:13:50;100089.84;;;26.83;69.86
4346;BME280;2186;49.866;7.986;2023-08-24T10:16:19;100071.38;;;26.77;68.51
4346;BME280;2186;49.866;7.986;2023-08-24T10:18:48;100075.59;;;26.89;68.43
4346;BME280;2186;49.866;7.986;2023-08-24T10:21:18;100063.88;;;27.06;67.96
4346;BME280;2186;49.866;7.986;2023-08-24T10:23:46;100066.22;;;27.19;68.55
4346;BME280;2186;49.866;7.986;2023-08-24T10:26:13;100064.59;;;26.99;67.42
4346;BME280;2186;49.866;7.986;2023-08-24T10:28:41;100070.88;;;27.27;66.28
4346;BME280;2186;49.866;7.986;2023-08-24T10:31:08;100069.59;;;27.31;67.02
4346;BME280;2186;49.866;7.986;2023-08-24T10:33:35;100066.00;;;27.30;67.33
4346;BME280;2186;49.866;7.986;2023-08-24T10:36:06;100060.53;;;27.30;66.91
4346;BME280;2186;49.866;7.986;2023-08-24T10:38:39;100049.25;;;27.51;65.53
4346;BME280;2186;49.866;7.986;2023-08-24T10:41:07;100042.31;;;27.57;65.23
4346;BME280;2186;49.866;7.986;2023-08-24T10:43:37;100031.31;;;27.66;64.71
4346;BME280;2186;49.866;7.986;2023-08-24T10:46:04;100044.19;;;27.74;65.13
4346;BME280;2186;49.866;7.986;2023-08-24T10:53:40;100062.63;;;27.72;63.90
4346;BME280;2186;49.866;7.986;2023-08-24T10:56:14;100059.34;;;27.94;63.39
4346;BME280;2186;49.866;7.986;2023-08-24T10:58:42;100051.03;;;28.04;63.99
4346;BME280;2186;49.866;7.986;2023-08-24T11:01:17;100043.09;;;27.93;64.50
4346;BME280;2186;49.866;7.986;2023-08-24T11:03:56;100048.53;;;28.19;63.52
4346;BME280;2186;49.866;7.986;2023-08-24T11:06:25;100049.31;;;27.77;62.88
4346;BME280;2186;49.866;7.986;2023-08-24T11:09:08;100035.72;;;28.11;63.01
4346;BME280;2186;49.866;7.986;2023-08-24T11:11:41;100037.09;;;28.23;63.41
4346;BME280;2186;49.866;7.986;2023-08-24T11:14:18;100029.00;;;28.06;62.22
4346;BME280;2186;49.866;7.986;2023-08-24T11:17:00;100023.25;;;28.17;63.34
4346;BME280;2186;49.866;7.986;2023-08-24T11:19:29;100010.09;;;28.20;64.00
4346;BME280;2186;49.866;7.986;2023-08-24T11:21:57;100009.34;;;28.28;64.24
4346;BME280;2186;49.866;7.986;2023-08-24T11:24:24;100004.91;;;28.01;63.97
4346;BME280;2186;49.866;7.986;2023-08-24T11:26:51;99990.31;;;27.84;64.56
4346;BME280;2186;49.866;7.986;2023-08-24T11:29:18;99988.19;;;27.78;65.20
4346;BME280;2186;49.866;7.986;2023-08-24T11:31:45;99978.41;;;28.01;65.42
4346;BME280;2186;49.866;7.986;2023-08-24T11:34:14;99980.13;;;28.02;65.94
4346;BME280;2186;49.866;7.986;2023-08-24T11:36:46;99981.34;;;28.08;65.35
4346;BME280;2186;49.866;7.986;2023-08-24T11:39:20;99991.31;;;28.17;65.77
4346;BME280;2186;49.866;7.986;2023-08-24T11:41:58;99982.91;;;28.11;64.06
4346;BME280;2186;49.866;7.986;2023-08-24T11:44:25;99983.03;;;28.35;64.55
4346;BME280;2186;49.866;7.986;2023-08-24T11:46:58;99985.56;;;28.28;64.14
4346;BME280;2186;49.866;7.986;2023-08-24T11:49:26;99982.41;;;28.15;66.28
4346;BME280;2186;49.866;7.986;2023-08-24T11:51:53;99971.91;;;28.28;65.17
4346;BME280;2186;49.866;7.986;2023-08-24T11:54:20;99973.47;;;28.05;63.84
4346;BME280;2186;49.866;7.986;2023-08-24T11:56:47;99955.25;;;28.22;64.85
4346;BME280;2186;49.866;7.986;2023-08-24T11:59:14;99958.72;;;28.24;64.72
4346;BME280;2186;49.866;7.986;2023-08-24T12:01:41;99946.38;;;28.20;66.38
4346;BME280;2186;49.866;7.986;2023-08-24T12:04:09;99942.69;;;28.29;67.10
4346;BME280;2186;49.866;7.986;2023-08-24T12:06:35;99939.88;;;28.21;66.28
4346;BME280;2186;49.866;7.986;2023-08-24T12:09:05;99939.88;;;28.13;65.19
4346;BME280;2186;49.866;7.986;2023-08-24T12:11:35;99941.41;;;28.23;65.91
4346;BME280;2186;49.866;7.986;2023-08-24T12:14:02;99942.09;;;28.17;65.27
4346;BME280;2186;49.866;7.986;2023-08-24T12:16:31;99946.19;;;28.13;65.77
4346;BME280;2186;49.866;7.986;2023-08-24T12:18:59;99936.28;;;28.20;66.03
4346;BME280;2186;49.866;7.986;2023-08-24T12:21:26;99932.59;;;28.29;66.77
4346;BME280;2186;49.866;7.986;2023-08-24T12:24:04;99926.47;;;28.44;65.83
4346;BME280;2186;49.866;7.986;2023-08-24T12:26:33;99940.34;;;28.50;65.73
4346;BME280;2186;49.866;7.986;2023-08-24T12:29:03;99939.34;;;28.51;66.13
4346;BME280;2186;49.866;7.986;2023-08-24T12:31:32;99941.69;;;28.46;65.86
4346;BME280;2186;49.866;7.986;2023-08-24T12:34:04;99942.44;;;28.22;64.33
4346;BME280;2186;49.866;7.986;2023-08-24T12:36:32;99939.31;;;28.43;64.41
4346;BME280;2186;49.866;7.986;2023-08-24T12:38:59;99941.69;;;28.46;65.21
4346;BME280;2186;49.866;7.986;2023-08-24T12:41:26;99959.34;;;28.60;66.60
4346;BME280;2186;49.866;7.986;2023-08-24T12:43:52;99961.03;;;28.53;64.49
4346;BME280;2186;49.866;7.986;2023-08-24T12:46:19;99963.47;;;28.72;64.86
4346;BME280;2186;49.866;7.986;2023-08-24T12:48:45;99955.06;;;28.57;64.19
4346;BME280;2186;49.866;7.986;2023-08-24T12:51:12;99947.06;;;28.72;65.33
4346;BME280;2186;49.866;7.986;2023-08-24T12:53:39;99938.78;;;28.48;66.09
4346;BME280;2186;49.866;7.986;2023-08-24T12:56:05;99937.25;;;28.45;65.87
4346;BME280;2186;49.866;7.986;2023-08-24T12:58:32;99940.03;;;28.53;63.90
4346;BME280;2186;49.866;7.986;2023-08-24T13:00:59;99947.78;;;28.24;63.35
4346;BME280;2186;49.866;7.986;2023-08-24T13:03:25;99956.75;;;28.50;64.25
4346;BME280;2186;49.866;7.986;2023-08-24T13:05:52;99962.72;;;28.46;65.06
4346;BME280;2186;49.866;7.986;2023-08-24T13:08:18;99970.41;;;28.42;66.29
4346;BME280;2186;49.866;7.986;2023-08-24T13:10:45;99973.38;;;28.73;66.19
4346;BME280;2186;49.866;7.986;2023-08-24T13:13:11;100000.81;;;28.89;64.17
4346;BME280;2186;49.866;7.986;2023-08-24T13:15:38;100014.44;;;28.73;65.74
4346;BME280;2186;49.866;7.986;2023-08-24T13:18:05;100030.66;;;28.67;65.56
4346;BME280;2186;49.866;7.986;2023-08-24T13:20:31;100047.72;;;28.60;66.50
4346;BME280;2186;49.866;7.986;2023-08-24T13:22:58;100050.06;;;28.47;66.11
4346;BME280;2186;49.866;7.986;2023-08-24T13:25:24;100072.09;;;28.38;66.61